createdAt,value
2023-03-30T19:15:24.488Z,1.92
2023-03-30T19:17:53.151Z,1.30
2023-03-30T19:20:23.650Z,1.40
2023-03-30T19:22:51.853Z,1.92
2023-03-30T19:25:21.348Z,2.22
2023-03-30T19:28:01.943Z,2.97
2023-03-30T19:30:34.780Z,4.35
2023-03-30T19:33:06.490Z,3.63
2023-03-30T19:35:36.744Z,4.72
2023-03-30T19:38:04.721Z,7.13
2023-03-30T19:40:32.634Z,6.28
2023-03-30T19:43:00.487Z,7.45
2023-03-30T19:45:28.393Z,7.22
2023-03-30T19:47:57.651Z,8.43
2023-03-30T19:50:26.392Z,9.73
2023-03-30T19:52:55.361Z,10.75
2023-03-30T19:55:23.613Z,9.48
2023-03-30T19:57:51.587Z,8.95
2023-03-30T20:00:20.449Z,11.32
2023-03-30T20:02:50.786Z,10.88
2023-03-30T20:05:21.619Z,14.57
2023-03-30T20:07:50.413Z,10.98
2023-03-30T20:10:20.555Z,12.90
2023-03-30T20:12:49.407Z,15.55
2023-03-30T20:15:18.621Z,13.82
2023-03-30T20:17:46.717Z,12.45
2023-03-30T20:20:22.623Z,13.07
2023-03-30T20:22:53.561Z,12.05
2023-03-30T20:25:23.080Z,10.18
2023-03-30T20:27:51.012Z,10.73
2023-03-30T20:30:19.250Z,12.15
2023-03-30T20:32:59.660Z,12.38
2023-03-30T20:35:35.699Z,12.63
2023-03-30T20:38:05.037Z,12.07
2023-03-30T20:40:33.557Z,13.82
2023-03-30T20:43:02.190Z,13.63
2023-03-30T20:45:30.559Z,12.85
2023-03-30T20:47:59.721Z,15.85
2023-03-30T20:50:27.761Z,13.93
2023-03-30T20:52:55.959Z,17.33
2023-03-30T20:55:25.206Z,15.15
2023-03-30T20:57:53.090Z,15.50
2023-03-30T21:00:22.211Z,20.58
2023-03-30T21:02:50.525Z,16.42
2023-03-30T21:05:18.553Z,17.75
2023-03-30T21:07:46.835Z,18.08
2023-03-30T21:10:16.220Z,17.88
2023-03-30T21:12:45.528Z,16.85
2023-03-30T21:15:14.039Z,18.05
2023-03-30T21:17:42.070Z,17.10
2023-03-30T21:20:11.663Z,16.00
2023-03-30T21:22:39.541Z,17.67
2023-03-30T21:25:08.128Z,18.80
2023-03-30T21:27:36.438Z,18.65
2023-03-30T21:30:07.039Z,19.10
2023-03-30T21:32:34.965Z,19.60
2023-03-30T21:35:02.876Z,19.23
2023-03-30T21:37:30.812Z,21.73
2023-03-30T21:39:58.694Z,19.90
2023-03-30T21:42:26.556Z,24.98
2023-03-30T21:44:54.670Z,23.05
